Terminal Aerodrome Forecast
Issued by NWS Topeka, KS

Home | Current Version | Previous Version | Text Only | Print | Product List | Glossary On
Versions: 1 2 3 4 5 6 7 8 9 10 11 12 13 14 15 16 17 18 19 20 21
247
FTUS43 KTOP 202337
TAFTOP
TAF
KTOP 202337Z 2100/2124 14004KT 4SM BR OVC020
     FM210800 23005KT 5SM BR SCT008 BKN025
     FM211100 24004KT 6SM BR OVC080
     FM211500 21005KT P6SM SCT150
     FM212300 11004KT P6SM SCT150=

USA.gov is the U.S. government's official web portal to all federal, state and local government web resources and services.